Buoy 44893

sailwx.info

Track history (hours):
 
Tides and Currents Weather Stations Pressure Air Temp Water Temp Dewpoint Dewpoint Depression Visibility Wind Speed Wind Dir Waves Ship Positions

Drifting buoy 44893

Last reported at 2017-Oct-22 21:00 UTC. Time now 2017-Oct-22 22:53 UTC.
Position N 35°47' W 058°58'.

Water temperature 24.5 ° C

Date/timePositionNaut miles runAvg speedWind from/ knotsBaromVisibWave heightAir tempDewpointWater temp
2017-Oct-22 21:00N 35°47' W 058°58'0 0.0 24.5
2017-Oct-22 20:45N 35°47' W 058°58'3 1.8 24.5
2017-Oct-22 19:15N 35°49' W 058°55'0 0.0 24.8
2017-Oct-22 17:45N 35°49' W 058°55'6 1.7 24.8
2017-Oct-22 14:15N 35°53' W 058°51'1 0.9 24.7
2017-Oct-22 12:45N 35°55' W 058°50'2 2.1 24.7
2017-Oct-22 12:00N 35°56' W 058°49'0 0.0 24.6
2017-Oct-22 11:45N 35°56' W 058°49'0 0.0 24.6
2017-Oct-22 11:15N 35°56' W 058°49'1 2.4 24.6
2017-Oct-22 11:00N 35°56' W 058°49'1 3.1 24.6
2017-Oct-22 10:45N 35°57' W 058°49'0 0.0 24.6
2017-Oct-22 10:00N 35°57' W 058°49'1 2.4 24.6
2017-Oct-22 09:45N 35°58' W 058°49'3 1.5 24.6
2017-Oct-22 08:00N 35°59' W 058°46'2 7.2 24.6
2017-Oct-22 07:45N 36°01' W 058°46'5 2.8 24.6
2017-Oct-22 06:00N 36°04' W 058°41'0 0.0 24.6
2017-Oct-22 02:15N 36°04' W 058°41'1 4.6 24.8
2017-Oct-22 02:00N 36°04' W 058°40'1 1.5 24.8
2017-Oct-22 01:15N 36°05' W 058°38'2 1.6 24.8
2017-Oct-22 00:15N 36°05' W 058°37'0 0.0 24.8
2017-Oct-22 00:00N 36°05' W 058°37'0 0.0 24.8
2017-Oct-21 23:45N 36°05' W 058°37'1 1.3 24.8
2017-Oct-21 22:45N 36°07' W 058°36'2 1.3 24.9
2017-Oct-21 21:15N 36°08' W 058°34'0 1.9 24.9
2017-Oct-21 21:00N 36°08' W 058°34'310.4 24.9
2017-Oct-21 20:45N 36°10' W 058°32'6 1.9 24.9
2017-Oct-21 17:45N 36°16' W 058°31'0 0.0 25.0
2017-Oct-21 15:00N 36°16' W 058°31'1 4.8 25.0
2017-Oct-21 14:45N 36°17' W 058°31'0 0.6 25.0
2017-Oct-21 14:00N 36°17' W 058°31'0 0.0 25.0
2017-Oct-21 13:45N 36°17' W 058°31'1 1.5 25.0
2017-Oct-21 13:15N 36°17' W 058°32'1 3.1 25.0
2017-Oct-21 13:00N 36°18' W 058°31'1 3.1 25.0
2017-Oct-21 12:45N 36°19' W 058°32'0 0.0 25.0
2017-Oct-21 12:15N 36°19' W 058°32'0 0.0 25.0
2017-Oct-21 11:45N 36°19' W 058°32'1 1.0 25.0
2017-Oct-21 11:00N 36°19' W 058°32'0 0.0 25.0
2017-Oct-21 10:00N 36°19' W 058°32'1 2.4 25.0
2017-Oct-21 09:45N 36°20' W 058°32'1 0.6 25.0
2017-Oct-21 08:45N 36°20' W 058°32'2 2.5 25.0
2017-Oct-21 08:00N 36°22' W 058°33'4 0.6 25.0
2017-Oct-21 01:45N 36°25' W 058°36'1 1.7 25.0
2017-Oct-21 01:00N 36°26' W 058°35'1 3.1 25.0
2017-Oct-21 00:45N 36°27' W 058°36'0 1.9 25.0
2017-Oct-21 00:30N 36°27' W 058°37'0 0.0 25.0
2017-Oct-21 00:15N 36°27' W 058°37'0 0.0 25.0
2017-Oct-21 00:00N 36°27' W 058°37'1 4.5 25.0
2017-Oct-20 23:45N 36°28' W 058°38'1 1.2 25.0
2017-Oct-20 23:15N 36°28' W 058°38'0 0.0 25.0
2017-Oct-20 23:00N 36°28' W 058°38'1 3.1 25.0
2017-Oct-20 22:45N 36°29' W 058°38'2 1.3 25.0
2017-Oct-20 21:00N 36°31' W 058°40'0 0.0 25.0
2017-Oct-20 20:00N 36°31' W 058°40'0 1.9 25.0
2017-Oct-20 19:45N 36°31' W 058°41'5 2.8 25.0
2017-Oct-20 18:00N 36°34' W 058°45'0 0.0 25.0
2017-Oct-20 17:45N 36°34' W 058°45'0 0.0 25.0
2017-Oct-20 15:15N 36°34' W 058°45'1 3.1 24.9
2017-Oct-20 15:00N 36°35' W 058°46'1 0.6 24.9
2017-Oct-20 13:00N 36°36' W 058°46'0 0.0 25.0
2017-Oct-20 12:45N 36°36' W 058°46'1 1.5 25.0
2017-Oct-20 12:00N 36°35' W 058°47'0 1.0 25.0
2017-Oct-20 11:30N 36°35' W 058°46'0 1.0 25.0
2017-Oct-20 11:00N 36°35' W 058°47'0 0.0 25.0
2017-Oct-20 10:45N 36°35' W 058°47'1 0.2 25.0
2017-Oct-20 08:15N 36°36' W 058°47'0 0.0 25.0
2017-Oct-20 08:00N 36°36' W 058°47'0 0.0 25.0
2017-Oct-20 07:45N 36°36' W 058°47'3 0.5 25.0
2017-Oct-20 02:00N 36°37' W 058°50'0 0.0 25.1
2017-Oct-20 01:45N 36°37' W 058°50'0 0.0 25.1
2017-Oct-20 01:15N 36°37' W 058°50'1 3.9 25.1
2017-Oct-20 01:00N 36°37' W 058°52'1 0.9 25.1
2017-Oct-19 23:45N 36°37' W 058°53'1 0.8 25.1
2017-Oct-19 23:00N 36°37' W 058°53'0 1.9 25.1
2017-Oct-19 22:45N 36°37' W 058°53'1 1.5 25.1
2017-Oct-19 22:00N 36°37' W 058°55'0 0.2 25.1
2017-Oct-19 20:00N 36°37' W 058°55'2 6.3 25.1
2017-Oct-19 19:45N 36°38' W 058°57'0 0.0 25.1
2017-Oct-19 18:15N 36°38' W 058°57'310.5 25.1
2017-Oct-19 18:00N 36°40' W 058°59'1 0.4 25.1
2017-Oct-19 14:45N 36°40' W 059°01'0 0.0 25.1
2017-Oct-19 14:00N 36°40' W 059°01'1 3.9 25.1
2017-Oct-19 13:45N 36°40' W 059°02'0 1.0 25.1
2017-Oct-19 13:15N 36°40' W 059°03'1 3.1 25.1
2017-Oct-19 13:00N 36°40' W 059°04'0 0.0 25.1
2017-Oct-19 12:45N 36°40' W 059°04'2 0.8 25.1
2017-Oct-19 10:45N 36°41' W 059°05'4 3.8 25.1
2017-Oct-19 09:45N 36°43' W 059°10'11 3.7 25.1
2017-Oct-19 06:45N 36°47' W 059°22'5 0.9 25.0
2017-Oct-19 00:45N 36°50' W 059°28'1 1.0 24.9
2017-Oct-19 00:00N 36°50' W 059°27'2 9.1 24.8
2017-Oct-18 23:45N 36°51' W 059°29'2 2.0 24.8
2017-Oct-18 23:00N 36°52' W 059°31'9 3.0 24.8
2017-Oct-18 20:00N 36°58' W 059°40'9 1.9 24.8
2017-Oct-18 15:00N 37°04' W 059°48'4 1.8 24.3
2017-Oct-18 12:45N 37°08' W 059°50'2 2.0 24.2
2017-Oct-18 11:45N 37°10' W 059°52'5 3.1 24.3
2017-Oct-18 10:00N 37°14' W 059°55'3 2.1 24.4
2017-Oct-18 08:45N 37°17' W 059°56'17 9.9 24.4
2017-Oct-18 07:00N 37°32' W 060°05'0 0.0 24.4
2017-Oct-18 06:45N 37°32' W 060°05'0 0.0 24.4
2017-Oct-18 02:45N 37°32' W 060°05'0 0.0 24.3
2017-Oct-18 02:00N 37°32' W 060°05'0 0.0 24.2
2017-Oct-18 01:45N 37°32' W 060°05'5 7.3 24.2
2017-Oct-18 01:00N 37°38' W 060°07'0 0.0 24.3
2017-Oct-18 00:45N 37°38' W 060°07'6 3.4 24.3
2017-Oct-17 23:00N 37°43' W 060°10'0 0.0 24.4
2017-Oct-17 22:45N 37°43' W 060°10'0 0.0 24.5
2017-Oct-17 21:45N 37°43' W 060°10'4 7.7 24.5
2017-Oct-17 21:15N 37°47' W 060°11'4 1.7 24.5
2017-Oct-17 18:45N 37°51' W 060°11'9 5.4 24.6
2017-Oct-17 17:00N 38°00' W 060°15'0 0.0 24.6
2017-Oct-17 16:45N 38°00' W 060°15'3 1.1 24.6
2017-Oct-17 13:45N 38°03' W 060°17'0 0.0 24.5
2017-Oct-17 13:00N 38°03' W 060°17'1 3.1 24.5
2017-Oct-17 12:45N 38°02' W 060°16'1 1.0 24.5
2017-Oct-17 12:00N 38°03' W 060°17'1 3.1 24.5
2017-Oct-17 11:45N 38°04' W 060°17'1 0.9 24.4
2017-Oct-17 10:45N 38°04' W 060°19'2 2.5 24.4
2017-Oct-17 10:00N 38°05' W 060°18'0 0.0 24.4
2017-Oct-17 09:45N 38°05' W 060°18'4 3.7 24.4
2017-Oct-17 08:45N 38°09' W 060°17'0 0.0 24.4
2017-Oct-17 07:15N 38°09' W 060°17'1143.6 24.4
2017-Oct-17 07:00N 38°19' W 060°10'0 0.0 24.4
2017-Oct-17 02:15N 38°19' W 060°10'4 1.4 24.4
2017-Oct-16 23:45N 38°22' W 060°10'2 1.4 24.5
2017-Oct-16 22:00N 38°25' W 060°10'0 0.0 24.5
2017-Oct-16 21:45N 38°25' W 060°10'6 2.0 24.5
2017-Oct-16 18:45N 38°29' W 060°05'2 0.6 24.6
2017-Oct-16 15:45N 38°31' W 060°03'0 0.0 24.5
2017-Oct-16 15:00N 38°31' W 060°03'312.2 24.5
2017-Oct-16 14:45N 38°33' W 060°01'0 0.0 24.5
2017-Oct-16 14:00N 38°33' W 060°01'1 0.5 24.5
2017-Oct-16 12:15N 38°33' W 059°59'2 8.1 24.5
2017-Oct-16 12:00N 38°35' W 059°58'2 0.8 24.5
2017-Oct-16 09:45N 38°36' W 059°56'2 2.0 24.5
2017-Oct-16 09:00N 38°37' W 059°55'4 0.6 24.5
2017-Oct-16 01:45N 38°40' W 059°52'2 2.0 24.5
2017-Oct-16 01:00N 38°41' W 059°50'0 0.0 24.5
2017-Oct-16 00:45N 38°41' W 059°50'1 1.0 24.5
2017-Oct-16 00:00N 38°41' W 059°50'0 0.0 24.5
2017-Oct-15 23:45N 38°41' W 059°50'2 1.1 24.5
2017-Oct-15 22:00N 38°41' W 059°48'0 0.0 24.5
2017-Oct-15 21:45N 38°41' W 059°48'1 0.8 24.5
2017-Oct-15 20:45N 38°40' W 059°49'3 1.9 24.5
2017-Oct-15 19:00N 38°40' W 059°44'0 0.0 24.6
2017-Oct-15 18:45N 38°40' W 059°44'5 0.9 24.6
2017-Oct-15 13:45N 38°42' W 059°39'2 1.5 24.5
2017-Oct-15 12:45N 38°43' W 059°37'2 0.8 24.5
2017-Oct-15 10:45N 38°43' W 059°35'1 0.7 24.5
2017-Oct-15 09:15N 38°44' W 059°34'1 3.7 24.5
2017-Oct-15 09:00N 38°44' W 059°33'6 0.9 24.5
2017-Oct-15 02:00N 38°41' W 059°26'2 2.0 24.5
2017-Oct-15 01:15N 38°41' W 059°24'0 0.0 24.5
2017-Oct-15 01:00N 38°41' W 059°24'1 0.9 24.4
2017-Oct-15 00:00N 38°41' W 059°23'0 1.9 24.4
2017-Oct-14 23:45N 38°41' W 059°23'1 1.2 24.4
2017-Oct-14 23:00N 38°41' W 059°22'1 4.5 24.4
2017-Oct-14 22:45N 38°40' W 059°21'4 2.1 24.4
2017-Oct-14 20:45N 38°40' W 059°16'2 1.1 24.5
2017-Oct-14 19:00N 38°40' W 059°13'5 1.1 24.5
2017-Oct-14 14:45N 38°39' W 059°07'0 0.6 24.4
2017-Oct-14 14:00N 38°39' W 059°08'2 6.1 24.4
2017-Oct-14 13:45N 38°38' W 059°06'3 1.0 24.5
2017-Oct-14 10:45N 38°37' W 059°02'3 1.7 24.5
2017-Oct-14 09:00N 38°35' W 058°59'1 1.1 24.5
2017-Oct-14 07:45N 38°35' W 058°58'6 3.3 24.5
2017-Oct-14 06:00N 38°33' W 058°51'2 0.4 24.5
2017-Oct-14 01:45N 38°34' W 058°49'2 1.5 24.6
2017-Oct-14 00:45N 38°33' W 058°47'1 1.5 24.5
2017-Oct-14 00:00N 38°34' W 058°46'0 0.0 24.6
2017-Oct-13 23:45N 38°34' W 058°46'2 1.2 24.6
2017-Oct-13 21:45N 38°33' W 058°43'2 2.3 24.6
2017-Oct-13 20:45N 38°33' W 058°40'2 0.7 24.6
2017-Oct-13 17:45N 38°32' W 058°38'3 1.1 24.5
2017-Oct-13 15:00N 38°31' W 058°34'2 0.7 24.6
2017-Oct-13 12:45N 38°31' W 058°32'1 1.1 24.6
2017-Oct-13 11:45N 38°30' W 058°31'2 3.2 24.6
2017-Oct-13 11:00N 38°29' W 058°28'0 0.0 24.6
2017-Oct-13 10:45N 38°29' W 058°28'0 0.0 24.6
2017-Oct-13 09:45N 38°29' W 058°28'5 2.6 24.7
2017-Oct-13 08:00N 38°28' W 058°23'0 0.0 24.7
2017-Oct-13 07:45N 38°28' W 058°23'4 2.5 24.7
2017-Oct-13 06:15N 38°26' W 058°19'0 0.0 24.7
2017-Oct-13 02:00N 38°26' W 058°19'2 7.5 24.7
2017-Oct-13 01:45N 38°26' W 058°16'0 0.6 24.7
2017-Oct-13 01:00N 38°26' W 058°16'1 0.6 24.7
2017-Oct-12 22:45N 38°26' W 058°14'1 0.9 24.8
2017-Oct-12 21:45N 38°26' W 058°13'0 0.0 24.8
2017-Oct-12 21:00N 38°26' W 058°13'   24.8
Track history (hours):
 
Tides and Currents Weather Stations Pressure Air Temp Water Temp Dewpoint Dewpoint Depression Visibility Wind Speed Wind Dir Waves Ship Positions

Drifting buoy 44893

Last reported at 2017-Oct-22 21:00 UTC. Time now 2017-Oct-22 22:53 UTC.
Position N 35°47' W 058°58'.

Water temperature 24.5 ° C

Date/timePositionNaut miles runAvg speedWind from/ knotsBaromVisibWave heightAir tempDewpointWater temp
2017-Oct-22 21:00N 35°47' W 058°58'0 0.0 24.5
2017-Oct-22 20:45N 35°47' W 058°58'3 1.8 24.5
2017-Oct-22 19:15N 35°49' W 058°55'0 0.0 24.8
2017-Oct-22 17:45N 35°49' W 058°55'6 1.7 24.8
2017-Oct-22 14:15N 35°53' W 058°51'1 0.9 24.7
2017-Oct-22 12:45N 35°55' W 058°50'2 2.1 24.7
2017-Oct-22 12:00N 35°56' W 058°49'0 0.0 24.6
2017-Oct-22 11:45N 35°56' W 058°49'0 0.0 24.6
2017-Oct-22 11:15N 35°56' W 058°49'1 2.4 24.6
2017-Oct-22 11:00N 35°56' W 058°49'1 3.1 24.6
2017-Oct-22 10:45N 35°57' W 058°49'0 0.0 24.6
2017-Oct-22 10:00N 35°57' W 058°49'1 2.4 24.6
2017-Oct-22 09:45N 35°58' W 058°49'3 1.5 24.6
2017-Oct-22 08:00N 35°59' W 058°46'2 7.2 24.6
2017-Oct-22 07:45N 36°01' W 058°46'5 2.8 24.6
2017-Oct-22 06:00N 36°04' W 058°41'0 0.0 24.6
2017-Oct-22 02:15N 36°04' W 058°41'1 4.6 24.8
2017-Oct-22 02:00N 36°04' W 058°40'1 1.5 24.8
2017-Oct-22 01:15N 36°05' W 058°38'2 1.6 24.8
2017-Oct-22 00:15N 36°05' W 058°37'0 0.0 24.8
2017-Oct-22 00:00N 36°05' W 058°37'0 0.0 24.8
2017-Oct-21 23:45N 36°05' W 058°37'1 1.3 24.8
2017-Oct-21 22:45N 36°07' W 058°36'2 1.3 24.9
2017-Oct-21 21:15N 36°08' W 058°34'0 1.9 24.9
2017-Oct-21 21:00N 36°08' W 058°34'310.4 24.9
2017-Oct-21 20:45N 36°10' W 058°32'6 1.9 24.9
2017-Oct-21 17:45N 36°16' W 058°31'0 0.0 25.0
2017-Oct-21 15:00N 36°16' W 058°31'1 4.8 25.0
2017-Oct-21 14:45N 36°17' W 058°31'0 0.6 25.0
2017-Oct-21 14:00N 36°17' W 058°31'0 0.0 25.0
2017-Oct-21 13:45N 36°17' W 058°31'1 1.5 25.0
2017-Oct-21 13:15N 36°17' W 058°32'1 3.1 25.0
2017-Oct-21 13:00N 36°18' W 058°31'1 3.1 25.0
2017-Oct-21 12:45N 36°19' W 058°32'0 0.0 25.0
2017-Oct-21 12:15N 36°19' W 058°32'0 0.0 25.0
2017-Oct-21 11:45N 36°19' W 058°32'1 1.0 25.0
2017-Oct-21 11:00N 36°19' W 058°32'0 0.0 25.0
2017-Oct-21 10:00N 36°19' W 058°32'1 2.4 25.0
2017-Oct-21 09:45N 36°20' W 058°32'1 0.6 25.0
2017-Oct-21 08:45N 36°20' W 058°32'2 2.5 25.0
2017-Oct-21 08:00N 36°22' W 058°33'4 0.6 25.0
2017-Oct-21 01:45N 36°25' W 058°36'1 1.7 25.0
2017-Oct-21 01:00N 36°26' W 058°35'1 3.1 25.0
2017-Oct-21 00:45N 36°27' W 058°36'0 1.9 25.0
2017-Oct-21 00:30N 36°27' W 058°37'0 0.0 25.0
2017-Oct-21 00:15N 36°27' W 058°37'0 0.0 25.0
2017-Oct-21 00:00N 36°27' W 058°37'1 4.5 25.0
2017-Oct-20 23:45N 36°28' W 058°38'1 1.2 25.0
2017-Oct-20 23:15N 36°28' W 058°38'0 0.0 25.0
2017-Oct-20 23:00N 36°28' W 058°38'1 3.1 25.0
2017-Oct-20 22:45N 36°29' W 058°38'2 1.3 25.0
2017-Oct-20 21:00N 36°31' W 058°40'0 0.0 25.0
2017-Oct-20 20:00N 36°31' W 058°40'0 1.9 25.0
2017-Oct-20 19:45N 36°31' W 058°41'5 2.8 25.0
2017-Oct-20 18:00N 36°34' W 058°45'0 0.0 25.0
2017-Oct-20 17:45N 36°34' W 058°45'0 0.0 25.0
2017-Oct-20 15:15N 36°34' W 058°45'1 3.1 24.9
2017-Oct-20 15:00N 36°35' W 058°46'1 0.6 24.9
2017-Oct-20 13:00N 36°36' W 058°46'0 0.0 25.0
2017-Oct-20 12:45N 36°36' W 058°46'1 1.5 25.0
2017-Oct-20 12:00N 36°35' W 058°47'0 1.0 25.0
2017-Oct-20 11:30N 36°35' W 058°46'0 1.0 25.0
2017-Oct-20 11:00N 36°35' W 058°47'0 0.0 25.0
2017-Oct-20 10:45N 36°35' W 058°47'1 0.2 25.0
2017-Oct-20 08:15N 36°36' W 058°47'0 0.0 25.0
2017-Oct-20 08:00N 36°36' W 058°47'0 0.0 25.0
2017-Oct-20 07:45N 36°36' W 058°47'3 0.5 25.0
2017-Oct-20 02:00N 36°37' W 058°50'0 0.0 25.1
2017-Oct-20 01:45N 36°37' W 058°50'0 0.0 25.1
2017-Oct-20 01:15N 36°37' W 058°50'1 3.9 25.1
2017-Oct-20 01:00N 36°37' W 058°52'1 0.9 25.1
2017-Oct-19 23:45N 36°37' W 058°53'1 0.8 25.1
2017-Oct-19 23:00N 36°37' W 058°53'0 1.9 25.1
2017-Oct-19 22:45N 36°37' W 058°53'1 1.5 25.1
2017-Oct-19 22:00N 36°37' W 058°55'0 0.2 25.1
2017-Oct-19 20:00N 36°37' W 058°55'2 6.3 25.1
2017-Oct-19 19:45N 36°38' W 058°57'0 0.0 25.1
2017-Oct-19 18:15N 36°38' W 058°57'310.5 25.1
2017-Oct-19 18:00N 36°40' W 058°59'1 0.4 25.1
2017-Oct-19 14:45N 36°40' W 059°01'0 0.0 25.1
2017-Oct-19 14:00N 36°40' W 059°01'1 3.9 25.1
2017-Oct-19 13:45N 36°40' W 059°02'0 1.0 25.1
2017-Oct-19 13:15N 36°40' W 059°03'1 3.1 25.1
2017-Oct-19 13:00N 36°40' W 059°04'0 0.0 25.1
2017-Oct-19 12:45N 36°40' W 059°04'2 0.8 25.1
2017-Oct-19 10:45N 36°41' W 059°05'4 3.8 25.1
2017-Oct-19 09:45N 36°43' W 059°10'11 3.7 25.1
2017-Oct-19 06:45N 36°47' W 059°22'5 0.9 25.0
2017-Oct-19 00:45N 36°50' W 059°28'1 1.0 24.9
2017-Oct-19 00:00N 36°50' W 059°27'2 9.1 24.8
2017-Oct-18 23:45N 36°51' W 059°29'2 2.0 24.8
2017-Oct-18 23:00N 36°52' W 059°31'9 3.0 24.8
2017-Oct-18 20:00N 36°58' W 059°40'9 1.9 24.8
2017-Oct-18 15:00N 37°04' W 059°48'4 1.8 24.3
2017-Oct-18 12:45N 37°08' W 059°50'2 2.0 24.2
2017-Oct-18 11:45N 37°10' W 059°52'5 3.1 24.3
2017-Oct-18 10:00N 37°14' W 059°55'3 2.1 24.4
2017-Oct-18 08:45N 37°17' W 059°56'17 9.9 24.4
2017-Oct-18 07:00N 37°32' W 060°05'0 0.0 24.4
2017-Oct-18 06:45N 37°32' W 060°05'0 0.0 24.4
2017-Oct-18 02:45N 37°32' W 060°05'0 0.0 24.3
2017-Oct-18 02:00N 37°32' W 060°05'0 0.0 24.2
2017-Oct-18 01:45N 37°32' W 060°05'5 7.3 24.2
2017-Oct-18 01:00N 37°38' W 060°07'0 0.0 24.3
2017-Oct-18 00:45N 37°38' W 060°07'6 3.4 24.3
2017-Oct-17 23:00N 37°43' W 060°10'0 0.0 24.4
2017-Oct-17 22:45N 37°43' W 060°10'0 0.0 24.5
2017-Oct-17 21:45N 37°43' W 060°10'4 7.7 24.5
2017-Oct-17 21:15N 37°47' W 060°11'4 1.7 24.5
2017-Oct-17 18:45N 37°51' W 060°11'9 5.4 24.6
2017-Oct-17 17:00N 38°00' W 060°15'0 0.0 24.6
2017-Oct-17 16:45N 38°00' W 060°15'3 1.1 24.6
2017-Oct-17 13:45N 38°03' W 060°17'0 0.0 24.5
2017-Oct-17 13:00N 38°03' W 060°17'1 3.1 24.5
2017-Oct-17 12:45N 38°02' W 060°16'1 1.0 24.5
2017-Oct-17 12:00N 38°03' W 060°17'1 3.1 24.5
2017-Oct-17 11:45N 38°04' W 060°17'1 0.9 24.4
2017-Oct-17 10:45N 38°04' W 060°19'2 2.5 24.4
2017-Oct-17 10:00N 38°05' W 060°18'0 0.0 24.4
2017-Oct-17 09:45N 38°05' W 060°18'4 3.7 24.4
2017-Oct-17 08:45N 38°09' W 060°17'0 0.0 24.4
2017-Oct-17 07:15N 38°09' W 060°17'1143.6 24.4
2017-Oct-17 07:00N 38°19' W 060°10'0 0.0 24.4
2017-Oct-17 02:15N 38°19' W 060°10'4 1.4 24.4
2017-Oct-16 23:45N 38°22' W 060°10'2 1.4 24.5
2017-Oct-16 22:00N 38°25' W 060°10'0 0.0 24.5
2017-Oct-16 21:45N 38°25' W 060°10'6 2.0 24.5
2017-Oct-16 18:45N 38°29' W 060°05'2 0.6 24.6
2017-Oct-16 15:45N 38°31' W 060°03'0 0.0 24.5
2017-Oct-16 15:00N 38°31' W 060°03'312.2 24.5
2017-Oct-16 14:45N 38°33' W 060°01'0 0.0 24.5
2017-Oct-16 14:00N 38°33' W 060°01'1 0.5 24.5
2017-Oct-16 12:15N 38°33' W 059°59'2 8.1 24.5
2017-Oct-16 12:00N 38°35' W 059°58'2 0.8 24.5
2017-Oct-16 09:45N 38°36' W 059°56'2 2.0 24.5
2017-Oct-16 09:00N 38°37' W 059°55'4 0.6 24.5
2017-Oct-16 01:45N 38°40' W 059°52'2 2.0 24.5
2017-Oct-16 01:00N 38°41' W 059°50'0 0.0 24.5
2017-Oct-16 00:45N 38°41' W 059°50'1 1.0 24.5
2017-Oct-16 00:00N 38°41' W 059°50'0 0.0 24.5
2017-Oct-15 23:45N 38°41' W 059°50'2 1.1 24.5
2017-Oct-15 22:00N 38°41' W 059°48'0 0.0 24.5
2017-Oct-15 21:45N 38°41' W 059°48'1 0.8 24.5
2017-Oct-15 20:45N 38°40' W 059°49'3 1.9 24.5
2017-Oct-15 19:00N 38°40' W 059°44'0 0.0 24.6
2017-Oct-15 18:45N 38°40' W 059°44'5 0.9 24.6
2017-Oct-15 13:45N 38°42' W 059°39'2 1.5 24.5
2017-Oct-15 12:45N 38°43' W 059°37'2 0.8 24.5
2017-Oct-15 10:45N 38°43' W 059°35'1 0.7 24.5
2017-Oct-15 09:15N 38°44' W 059°34'1 3.7 24.5
2017-Oct-15 09:00N 38°44' W 059°33'6 0.9 24.5
2017-Oct-15 02:00N 38°41' W 059°26'2 2.0 24.5
2017-Oct-15 01:15N 38°41' W 059°24'0 0.0 24.5
2017-Oct-15 01:00N 38°41' W 059°24'1 0.9 24.4
2017-Oct-15 00:00N 38°41' W 059°23'0 1.9 24.4
2017-Oct-14 23:45N 38°41' W 059°23'1 1.2 24.4
2017-Oct-14 23:00N 38°41' W 059°22'1 4.5 24.4
2017-Oct-14 22:45N 38°40' W 059°21'4 2.1 24.4
2017-Oct-14 20:45N 38°40' W 059°16'2 1.1 24.5
2017-Oct-14 19:00N 38°40' W 059°13'5 1.1 24.5
2017-Oct-14 14:45N 38°39' W 059°07'0 0.6 24.4
2017-Oct-14 14:00N 38°39' W 059°08'2 6.1 24.4
2017-Oct-14 13:45N 38°38' W 059°06'3 1.0 24.5
2017-Oct-14 10:45N 38°37' W 059°02'3 1.7 24.5
2017-Oct-14 09:00N 38°35' W 058°59'1 1.1 24.5
2017-Oct-14 07:45N 38°35' W 058°58'6 3.3 24.5
2017-Oct-14 06:00N 38°33' W 058°51'2 0.4 24.5
2017-Oct-14 01:45N 38°34' W 058°49'2 1.5 24.6
2017-Oct-14 00:45N 38°33' W 058°47'1 1.5 24.5
2017-Oct-14 00:00N 38°34' W 058°46'0 0.0 24.6
2017-Oct-13 23:45N 38°34' W 058°46'2 1.2 24.6
2017-Oct-13 21:45N 38°33' W 058°43'2 2.3 24.6
2017-Oct-13 20:45N 38°33' W 058°40'2 0.7 24.6
2017-Oct-13 17:45N 38°32' W 058°38'3 1.1 24.5
2017-Oct-13 15:00N 38°31' W 058°34'2 0.7 24.6
2017-Oct-13 12:45N 38°31' W 058°32'1 1.1 24.6
2017-Oct-13 11:45N 38°30' W 058°31'2 3.2 24.6
2017-Oct-13 11:00N 38°29' W 058°28'0 0.0 24.6
2017-Oct-13 10:45N 38°29' W 058°28'0 0.0 24.6
2017-Oct-13 09:45N 38°29' W 058°28'5 2.6 24.7
2017-Oct-13 08:00N 38°28' W 058°23'0 0.0 24.7
2017-Oct-13 07:45N 38°28' W 058°23'4 2.5 24.7
2017-Oct-13 06:15N 38°26' W 058°19'0 0.0 24.7
2017-Oct-13 02:00N 38°26' W 058°19'2 7.5 24.7
2017-Oct-13 01:45N 38°26' W 058°16'0 0.6 24.7
2017-Oct-13 01:00N 38°26' W 058°16'1 0.6 24.7
2017-Oct-12 22:45N 38°26' W 058°14'1 0.9 24.8
2017-Oct-12 21:45N 38°26' W 058°13'0 0.0 24.8
2017-Oct-12 21:00N 38°26' W 058°13'   24.8

Dump ship's entire track history